Terminal Aerodrome Forecast
Issued by NWS

Home | Current Version | Previous Version | Text Only | Print | Product List | Glossary On
Versions: 1 2 3 4 5 6 7 8 9 10 11 12 13 14 15 16 17 18 19 20 21 22 23 24
000
FTUS41 KBGM 181700
TAFRME
TAF
KRME 181730Z 1818/1918 29012KT P6SM -SHSN SCT008 OVC015
      TEMPO 1818/1820 2SM -SHSN BR OVC008
     FM190100 30006KT P6SM OVC015
     FM191400 30007KT P6SM OVC025=

USA.gov is the U.S. government's official web portal to all federal, state and local government web resources and services.